Agana Heights, GU

4:15 AM ChST on July 26, 2014 (GMT +1000)
Maite (KGUMAITE2) Elev 140 ft | 13.48 °N, 144.76 °E | Change Station

Current weather conditions updated 2 seconds ago

Clear
Clear
77.0 °F
Feels Like 78 °F
N
1.0
Wind Variable Wind from SSE
Gusts 3.0 mph

Today is forecast to be nearly the same temperature as yesterday. Showers and thunderstorms.

Today
High -- | Low -- °F
--% Chance of Precip.
Yesterday
High -- | Low -- °F
Precip. -- in
6:04 AM 6:50 PM
Waning Crescent, 1% visible
Pressure 29.81 in
Visibility 10.0 miles
Clouds Clear
Heat Index 78 °F
Dew Point 76 °F
Humidity 95%
Rainfall 0.00 in
Snow Depth Not available.
UV 0.0 out of 12
Pollen Not available.
Air Quality Not available.
Flu Activity Not available.
METAR PGUM 251754Z 00000KT 10SM CLR 25/24 A2983 RMK AO2 RAE09 SLP093 P0001 60001 T02500239 10267 20250 53001 $

More Conditions Fewer Conditions

Pressure 29.81 in
Visibility 10.0 miles
Clouds Clear
Heat Index 78 °F
Dew Point 76 °F
Humidity 95%
Rainfall 0.00 in
Snow Depth Not available.
UV 0.0 out of 12
Pollen Not available.
Air Quality Not available.
Flu Activity Not available.
METAR PGUM 251754Z 00000KT 10SM CLR 25/24 A2983 RMK AO2 RAE09 SLP093 P0001 60001 T02500239 10267 20250 53001 $

More Conditions Fewer Conditions

10-Day Weather Forecast

Almanac

Astronomy

Jul. 26, 2014 Rise Set
Actual Time 6:04 AM ChST 6:50 PM ChST
Civil Twilight 5:41 AM ChST 7:13 PM ChST
Nautical Twilight 5:14 AM ChST 7:40 PM ChST
Astronomical Twilight 4:47 AM ChST 8:07 PM ChST
Moon 5:15 AM ChST (7/26) 6:11 PM ChST (7/26)
Length of Visible Light 13h 31m
Length of Day
12h 46m
Tomorrow will be 0m 29s shorter.
Waning Crescent, 1% of the Moon is Illuminated
Jul 25
Waning Crescent
Jul 26
New
Aug 3
First Quarter
Aug 10
Full
Aug 17
Last Quarter

Community

WunderPhotos

Upload Photos

1,737,371 photos uploaded!

Nearby

Snow Depth

Station Depth Elevation
No new snow has been reported.

Earthquake Activity

City Distance Mag. Time & Date
No recent earthquake activity has been reported nearby.
Minimum magnitude displayed is 2.5.

Coastal Water Temperatures

Place Temperature
No Stations Reporting

Nearby Weather Stations

Station Location Temp. Heat Index Dew Point Humidity Wind Precip. Elev Updated Type
Maite, Maite, GU 77.0 °F 78 °F 76 °F 95% SSE  at  1.0 mph 0.00 in / hr 140 ft 4:15 AM ChST Rapid Fire
Ordot Dump, Chalan Pago Ordot 75.7 °F 74 °F 75 °F 97% SW  at  0.0 mph 0.00 in / hr 282 ft 4:15 AM ChST Rapid Fire
Perezville, Tamuning, Guam 77.0 °F 78 °F 75 °F 93% SE  at  0.0 mph 0.00 in / hr 120 ft 4:15 AM ChST Normal
Mangilao, Mangilao, GU 76.3 °F 77 °F 71 °F 84% West  at  0.0 mph 0.00 in / hr 361 ft 4:15 AM ChST Rapid Fire
Jeffs Pirates Cove, Guam, Ipan Talofofo, GU 76.6 °F 77 °F 74 °F 93% South  at  0.0 mph 0.00 in / hr 27 ft 4:15 AM ChST Rapid Fire
Ypaopao Estates, Dededo 76.1 °F 76 °F 75 °F 96% SW  at  0.9 mph 0.01 in / hr 420 ft 4:15 AM ChST Rapid Fire

Show More Stations Show Fewer Stations